Albuquerque International Sunport Airport
KABQ : now visible

Airfield :











YOU CAN JOIN US ON...

 
LOGIN :

Register | Disclaimer

   EN    FR    IT 

 









Legend :    VFR   Marginal VFR   IFR   Intensive IFR   Very Intensive IFR
Visi :
Ceiling :
>= 8 km
>= 3000ft
5 to 8 km
1000 to 3000 ft
1500m to 5 km
500 to 1000 ft
800 to 1500m
200 to 500 ft
< 800m
< 200 ft
Symbols :   Thunderstorms  Fog  Heavy snow  Heavy precipitations  Wind > 20 kt






- Airport Elevation : 5355 ft
- IATA code : ABQ


KABQ - Albuquerque International Sunport

CURRENT METAR :
  • 220352Z 00000KT 10SM SCT140 BKN220 07/04 A2993 RMK AO2 SLP118 T00720039

EXPIRED METARs :
  • 220252Z 30005KT 10SM FEW035 FEW080 SCT150 BKN220 08/04 A2991 RMK AO2 SLP109 MTN TOPS OBSC NE T00780044 55005

TAF KABQ
Valid from the 22 at 00:00 until the 23 at 00:00 UTC


212339Z 2200/2224 VRB06KT P6SM FEW035 BKN050
TEMPO 2201/2203 VRB10G20KT -SHRA SCT025 BKN035
FM220700 17011KT P6SM FEW035 BKN050
FM221400 18010G20KT P6SM FEW040 BKN060
FM221900 23025G35KT P6SM VCSH FEW040 BKN060
KZAB FIR / North America



MET'MAP, your aeronautical weather chart ! - Copyright ORBIFLY December 2007 - Disclaimer

ORBIFLY MET'MAP TEAM :

Programming & Development : Alexandra Zaïnal
Original concept : Baudouin d'Aumeries
Technical & hardware support : Manuel Goepfert
Assistance : Marc-Olivier Méhu




SOURCES & CREDITS :

   NOAA       Earth
Advisory